sensor_id;sensor_type;location;lat;lon;timestamp;temperature;humidity
10702;DHT22;5402;50.004;8.246;2023-02-12T00:00:59;6.10;99.90
10702;DHT22;5402;50.004;8.246;2023-02-12T00:03:26;6.10;99.90
10702;DHT22;5402;50.004;8.246;2023-02-12T00:05:53;6.10;99.90
10702;DHT22;5402;50.004;8.246;2023-02-12T00:08:21;6.00;99.90
10702;DHT22;5402;50.004;8.246;2023-02-12T00:10:47;6.00;99.90
10702;DHT22;5402;50.004;8.246;2023-02-12T00:13:14;6.10;99.90
10702;DHT22;5402;50.004;8.246;2023-02-12T00:15:41;6.10;99.90
10702;DHT22;5402;50.004;8.246;2023-02-12T00:18:11;6.20;99.90
10702;DHT22;5402;50.004;8.246;2023-02-12T00:20:38;6.20;99.90
10702;DHT22;5402;50.004;8.246;2023-02-12T00:23:05;6.30;99.90
10702;DHT22;5402;50.004;8.246;2023-02-12T00:25:34;6.30;99.90
10702;DHT22;5402;50.004;8.246;2023-02-12T00:28:00;6.30;99.90
10702;DHT22;5402;50.004;8.246;2023-02-12T00:30:27;6.30;99.90
10702;DHT22;5402;50.004;8.246;2023-02-12T00:32:54;6.40;99.90
10702;DHT22;5402;50.004;8.246;2023-02-12T00:35:20;6.40;99.90
10702;DHT22;5402;50.004;8.246;2023-02-12T00:37:47;6.40;99.90
10702;DHT22;5402;50.004;8.246;2023-02-12T00:40:14;6.50;99.90
10702;DHT22;5402;50.004;8.246;2023-02-12T00:42:42;6.40;99.90
10702;DHT22;5402;50.004;8.246;2023-02-12T00:45:09;6.50;99.90
10702;DHT22;5402;50.004;8.246;2023-02-12T00:47:36;6.50;99.90
10702;DHT22;5402;50.004;8.246;2023-02-12T00:50:03;6.50;99.90
10702;DHT22;5402;50.004;8.246;2023-02-12T00:52:29;6.50;99.90
10702;DHT22;5402;50.004;8.246;2023-02-12T00:54:56;6.50;99.90
10702;DHT22;5402;50.004;8.246;2023-02-12T00:57:23;6.40;99.90
10702;DHT22;5402;50.004;8.246;2023-02-12T00:59:51;6.40;99.90
10702;DHT22;5402;50.004;8.246;2023-02-12T01:02:18;6.50;99.90
10702;DHT22;5402;50.004;8.246;2023-02-12T01:04:45;6.50;99.90
10702;DHT22;5402;50.004;8.246;2023-02-12T01:07:11;6.50;99.90
10702;DHT22;5402;50.004;8.246;2023-02-12T01:09:38;6.50;99.90
10702;DHT22;5402;50.004;8.246;2023-02-12T01:12:05;6.50;99.90
10702;DHT22;5402;50.004;8.246;2023-02-12T01:14:33;6.40;99.90
10702;DHT22;5402;50.004;8.246;2023-02-12T01:17:01;6.40;99.90
10702;DHT22;5402;50.004;8.246;2023-02-12T01:19:27;6.40;99.90
10702;DHT22;5402;50.004;8.246;2023-02-12T01:21:55;6.40;99.90
10702;DHT22;5402;50.004;8.246;2023-02-12T01:24:22;6.40;99.90
10702;DHT22;5402;50.004;8.246;2023-02-12T01:26:49;6.40;99.90
10702;DHT22;5402;50.004;8.246;2023-02-12T01:29:16;6.40;99.90
10702;DHT22;5402;50.004;8.246;2023-02-12T01:31:42;6.30;99.90
10702;DHT22;5402;50.004;8.246;2023-02-12T01:34:11;6.30;99.90
10702;DHT22;5402;50.004;8.246;2023-02-12T01:36:38;6.30;99.90
10702;DHT22;5402;50.004;8.246;2023-02-12T01:39:05;6.30;99.90
10702;DHT22;5402;50.004;8.246;2023-02-12T01:41:35;6.30;99.90
10702;DHT22;5402;50.004;8.246;2023-02-12T01:44:07;6.30;99.90
10702;DHT22;5402;50.004;8.246;2023-02-12T01:46:34;6.30;99.90
10702;DHT22;5402;50.004;8.246;2023-02-12T01:49:02;6.30;99.90
10702;DHT22;5402;50.004;8.246;2023-02-12T01:51:31;6.20;99.90
10702;DHT22;5402;50.004;8.246;2023-02-12T01:54:01;6.20;99.90
10702;DHT22;5402;50.004;8.246;2023-02-12T01:56:28;6.20;99.90
10702;DHT22;5402;50.004;8.246;2023-02-12T01:58:56;6.20;99.90
10702;DHT22;5402;50.004;8.246;2023-02-12T02:01:25;6.20;99.90
10702;DHT22;5402;50.004;8.246;2023-02-12T02:03:54;6.20;99.90
10702;DHT22;5402;50.004;8.246;2023-02-12T02:06:26;6.20;99.90
10702;DHT22;5402;50.004;8.246;2023-02-12T02:08:56;6.20;99.90
10702;DHT22;5402;50.004;8.246;2023-02-12T02:11:23;6.20;99.90
10702;DHT22;5402;50.004;8.246;2023-02-12T02:14:08;6.20;99.90
10702;DHT22;5402;50.004;8.246;2023-02-12T02:16:57;6.20;99.90
10702;DHT22;5402;50.004;8.246;2023-02-12T02:19:35;6.20;99.90
10702;DHT22;5402;50.004;8.246;2023-02-12T02:22:19;6.20;99.90
10702;DHT22;5402;50.004;8.246;2023-02-12T02:27:51;6.10;99.90
10702;DHT22;5402;50.004;8.246;2023-02-12T02:30:33;6.10;99.90
10702;DHT22;5402;50.004;8.246;2023-02-12T02:33:12;6.10;99.90
10702;DHT22;5402;50.004;8.246;2023-02-12T02:35:42;6.10;99.90
10702;DHT22;5402;50.004;8.246;2023-02-12T02:38:20;6.10;99.90
10702;DHT22;5402;50.004;8.246;2023-02-12T02:40:52;6.10;99.90
10702;DHT22;5402;50.004;8.246;2023-02-12T02:43:25;6.20;99.90
10702;DHT22;5402;50.004;8.246;2023-02-12T02:45:58;6.20;99.90
10702;DHT22;5402;50.004;8.246;2023-02-12T02:48:31;6.20;99.90
10702;DHT22;5402;50.004;8.246;2023-02-12T02:51:03;6.10;99.90
10702;DHT22;5402;50.004;8.246;2023-02-12T02:53:34;6.20;99.90
10702;DHT22;5402;50.004;8.246;2023-02-12T02:56:06;6.20;99.90
10702;DHT22;5402;50.004;8.246;2023-02-12T02:58:37;6.20;99.90
10702;DHT22;5402;50.004;8.246;2023-02-12T03:01:08;6.20;99.90
10702;DHT22;5402;50.004;8.246;2023-02-12T03:03:40;6.20;99.90
10702;DHT22;5402;50.004;8.246;2023-02-12T03:06:10;6.20;99.90
10702;DHT22;5402;50.004;8.246;2023-02-12T03:08:41;6.20;99.90
10702;DHT22;5402;50.004;8.246;2023-02-12T03:11:16;6.20;99.90
10702;DHT22;5402;50.004;8.246;2023-02-12T03:13:47;6.20;99.90
10702;DHT22;5402;50.004;8.246;2023-02-12T03:16:19;6.20;99.90
10702;DHT22;5402;50.004;8.246;2023-02-12T03:18:52;6.20;99.90
10702;DHT22;5402;50.004;8.246;2023-02-12T03:21:25;6.20;99.90
10702;DHT22;5402;50.004;8.246;2023-02-12T03:23:56;6.20;99.90
10702;DHT22;5402;50.004;8.246;2023-02-12T03:26:31;6.20;99.90
10702;DHT22;5402;50.004;8.246;2023-02-12T03:29:00;6.20;99.90
10702;DHT22;5402;50.004;8.246;2023-02-12T03:31:32;6.20;99.90
10702;DHT22;5402;50.004;8.246;2023-02-12T03:34:06;6.20;99.90
10702;DHT22;5402;50.004;8.246;2023-02-12T03:36:39;6.20;99.90
10702;DHT22;5402;50.004;8.246;2023-02-12T03:39:10;6.20;99.90
10702;DHT22;5402;50.004;8.246;2023-02-12T03:41:42;6.20;99.90
10702;DHT22;5402;50.004;8.246;2023-02-12T03:44:17;6.10;99.90
10702;DHT22;5402;50.004;8.246;2023-02-12T03:46:52;6.10;99.90
10702;DHT22;5402;50.004;8.246;2023-02-12T03:49:25;6.10;99.90
10702;DHT22;5402;50.004;8.246;2023-02-12T03:51:54;6.10;99.90
10702;DHT22;5402;50.004;8.246;2023-02-12T03:54:21;6.00;99.90
10702;DHT22;5402;50.004;8.246;2023-02-12T03:56:52;6.00;99.90
10702;DHT22;5402;50.004;8.246;2023-02-12T03:59:21;6.00;99.90
10702;DHT22;5402;50.004;8.246;2023-02-12T04:01:51;6.00;99.90
10702;DHT22;5402;50.004;8.246;2023-02-12T04:04:18;6.00;99.90
10702;DHT22;5402;50.004;8.246;2023-02-12T04:06:47;6.00;99.90
10702;DHT22;5402;50.004;8.246;2023-02-12T04:09:14;6.10;99.90
10702;DHT22;5402;50.004;8.246;2023-02-12T04:11:51;6.10;99.90
10702;DHT22;5402;50.004;8.246;2023-02-12T04:14:25;6.00;99.90
10702;DHT22;5402;50.004;8.246;2023-02-12T04:16:59;6.00;99.90
10702;DHT22;5402;50.004;8.246;2023-02-12T04:19:35;6.10;99.90
10702;DHT22;5402;50.004;8.246;2023-02-12T04:22:14;6.00;99.90
10702;DHT22;5402;50.004;8.246;2023-02-12T04:24:49;6.10;99.90
10702;DHT22;5402;50.004;8.246;2023-02-12T04:27:22;6.10;99.90
10702;DHT22;5402;50.004;8.246;2023-02-12T04:29:54;6.10;99.90
10702;DHT22;5402;50.004;8.246;2023-02-12T04:32:29;6.00;99.90
10702;DHT22;5402;50.004;8.246;2023-02-12T04:35:03;6.10;99.90
10702;DHT22;5402;50.004;8.246;2023-02-12T04:37:35;6.10;99.90
10702;DHT22;5402;50.004;8.246;2023-02-12T04:40:07;6.00;99.90
10702;DHT22;5402;50.004;8.246;2023-02-12T04:42:40;6.10;99.90
10702;DHT22;5402;50.004;8.246;2023-02-12T04:45:09;6.10;99.90
10702;DHT22;5402;50.004;8.246;2023-02-12T04:47:37;6.10;99.90
10702;DHT22;5402;50.004;8.246;2023-02-12T04:50:05;6.10;99.90
10702;DHT22;5402;50.004;8.246;2023-02-12T04:52:32;6.10;99.90
10702;DHT22;5402;50.004;8.246;2023-02-12T04:54:59;6.00;99.90
10702;DHT22;5402;50.004;8.246;2023-02-12T04:57:26;6.10;99.90
10702;DHT22;5402;50.004;8.246;2023-02-12T04:59:52;6.10;99.90
10702;DHT22;5402;50.004;8.246;2023-02-12T05:02:19;6.10;99.90
10702;DHT22;5402;50.004;8.246;2023-02-12T05:04:47;6.10;99.90
10702;DHT22;5402;50.004;8.246;2023-02-12T05:07:14;6.00;99.90
10702;DHT22;5402;50.004;8.246;2023-02-12T05:09:41;6.10;99.90
10702;DHT22;5402;50.004;8.246;2023-02-12T05:12:08;6.10;99.90
10702;DHT22;5402;50.004;8.246;2023-02-12T05:14:35;6.10;99.90
10702;DHT22;5402;50.004;8.246;2023-02-12T05:17:01;6.10;99.90
10702;DHT22;5402;50.004;8.246;2023-02-12T05:19:28;6.10;99.90
10702;DHT22;5402;50.004;8.246;2023-02-12T05:21:58;6.10;99.90
10702;DHT22;5402;50.004;8.246;2023-02-12T05:24:25;6.10;99.90
10702;DHT22;5402;50.004;8.246;2023-02-12T05:26:52;6.10;99.90
10702;DHT22;5402;50.004;8.246;2023-02-12T05:29:18;6.00;99.90
10702;DHT22;5402;50.004;8.246;2023-02-12T05:31:45;6.00;99.90
10702;DHT22;5402;50.004;8.246;2023-02-12T05:34:13;6.00;99.90
10702;DHT22;5402;50.004;8.246;2023-02-12T05:36:40;6.00;99.90
10702;DHT22;5402;50.004;8.246;2023-02-12T05:39:09;6.10;99.90
10702;DHT22;5402;50.004;8.246;2023-02-12T05:41:36;6.10;99.90
10702;DHT22;5402;50.004;8.246;2023-02-12T05:44:04;6.10;99.90
10702;DHT22;5402;50.004;8.246;2023-02-12T05:46:32;6.10;99.90
10702;DHT22;5402;50.004;8.246;2023-02-12T05:48:59;6.10;99.90
10702;DHT22;5402;50.004;8.246;2023-02-12T05:51:26;6.00;99.90
10702;DHT22;5402;50.004;8.246;2023-02-12T05:53:56;6.00;99.90
10702;DHT22;5402;50.004;8.246;2023-02-12T05:56:27;5.90;99.90
10702;DHT22;5402;50.004;8.246;2023-02-12T05:58:56;5.90;99.90
10702;DHT22;5402;50.004;8.246;2023-02-12T06:01:25;5.90;99.90
10702;DHT22;5402;50.004;8.246;2023-02-12T06:03:52;5.90;99.90
10702;DHT22;5402;50.004;8.246;2023-02-12T06:06:19;5.90;99.90
10702;DHT22;5402;50.004;8.246;2023-02-12T06:08:46;5.90;99.90
10702;DHT22;5402;50.004;8.246;2023-02-12T06:11:14;5.80;99.90
10702;DHT22;5402;50.004;8.246;2023-02-12T06:13:43;5.80;99.90
10702;DHT22;5402;50.004;8.246;2023-02-12T06:16:17;5.80;99.90
10702;DHT22;5402;50.004;8.246;2023-02-12T06:18:44;5.80;99.90
10702;DHT22;5402;50.004;8.246;2023-02-12T06:21:12;5.80;99.90
10702;DHT22;5402;50.004;8.246;2023-02-12T06:23:38;5.80;99.90
10702;DHT22;5402;50.004;8.246;2023-02-12T06:26:05;5.70;99.90
10702;DHT22;5402;50.004;8.246;2023-02-12T06:28:32;5.80;99.90
10702;DHT22;5402;50.004;8.246;2023-02-12T06:31:00;5.70;99.90
10702;DHT22;5402;50.004;8.246;2023-02-12T06:33:27;5.80;99.90
10702;DHT22;5402;50.004;8.246;2023-02-12T06:35:55;5.80;99.90
10702;DHT22;5402;50.004;8.246;2023-02-12T06:38:21;5.80;99.90
10702;DHT22;5402;50.004;8.246;2023-02-12T06:40:48;5.80;99.90
10702;DHT22;5402;50.004;8.246;2023-02-12T06:43:15;5.80;99.90
10702;DHT22;5402;50.004;8.246;2023-02-12T06:45:41;5.80;99.90
10702;DHT22;5402;50.004;8.246;2023-02-12T06:48:09;5.90;99.90
10702;DHT22;5402;50.004;8.246;2023-02-12T06:50:36;5.90;99.90
10702;DHT22;5402;50.004;8.246;2023-02-12T06:53:03;5.90;99.90
10702;DHT22;5402;50.004;8.246;2023-02-12T06:55:29;5.80;99.90
10702;DHT22;5402;50.004;8.246;2023-02-12T06:57:56;5.90;99.90
10702;DHT22;5402;50.004;8.246;2023-02-12T07:00:23;5.80;99.90
10702;DHT22;5402;50.004;8.246;2023-02-12T07:02:53;5.90;99.90
10702;DHT22;5402;50.004;8.246;2023-02-12T07:05:23;5.90;99.90
10702;DHT22;5402;50.004;8.246;2023-02-12T07:07:49;6.00;99.90
10702;DHT22;5402;50.004;8.246;2023-02-12T07:10:16;6.00;99.90
10702;DHT22;5402;50.004;8.246;2023-02-12T07:12:44;6.10;99.90
10702;DHT22;5402;50.004;8.246;2023-02-12T07:15:11;6.10;99.90
10702;DHT22;5402;50.004;8.246;2023-02-12T07:17:38;6.10;99.90
10702;DHT22;5402;50.004;8.246;2023-02-12T07:20:06;6.10;99.90
10702;DHT22;5402;50.004;8.246;2023-02-12T07:22:36;6.10;99.90
10702;DHT22;5402;50.004;8.246;2023-02-12T07:25:03;6.00;99.90
10702;DHT22;5402;50.004;8.246;2023-02-12T07:27:30;6.00;99.90
10702;DHT22;5402;50.004;8.246;2023-02-12T07:29:58;6.10;99.90
10702;DHT22;5402;50.004;8.246;2023-02-12T07:32:24;6.10;99.90
10702;DHT22;5402;50.004;8.246;2023-02-12T07:34:51;6.10;99.90
10702;DHT22;5402;50.004;8.246;2023-02-12T07:37:18;6.20;99.90
10702;DHT22;5402;50.004;8.246;2023-02-12T07:39:48;6.20;99.90
10702;DHT22;5402;50.004;8.246;2023-02-12T07:42:16;6.30;99.90
10702;DHT22;5402;50.004;8.246;2023-02-12T07:44:43;6.30;99.90
10702;DHT22;5402;50.004;8.246;2023-02-12T07:47:09;6.30;99.90
10702;DHT22;5402;50.004;8.246;2023-02-12T07:49:36;6.40;99.90
10702;DHT22;5402;50.004;8.246;2023-02-12T07:52:03;6.40;99.90
10702;DHT22;5402;50.004;8.246;2023-02-12T07:54:30;6.40;99.90
10702;DHT22;5402;50.004;8.246;2023-02-12T07:56:58;6.40;99.90
10702;DHT22;5402;50.004;8.246;2023-02-12T07:59:25;6.40;99.90
10702;DHT22;5402;50.004;8.246;2023-02-12T08:01:53;6.40;99.90
10702;DHT22;5402;50.004;8.246;2023-02-12T08:04:22;6.50;99.90
10702;DHT22;5402;50.004;8.246;2023-02-12T08:06:50;6.50;99.90
10702;DHT22;5402;50.004;8.246;2023-02-12T08:09:19;6.50;99.90
10702;DHT22;5402;50.004;8.246;2023-02-12T08:11:47;6.60;99.90
10702;DHT22;5402;50.004;8.246;2023-02-12T08:14:17;6.60;99.90
10702;DHT22;5402;50.004;8.246;2023-02-12T08:16:45;6.60;99.90
10702;DHT22;5402;50.004;8.246;2023-02-12T08:19:12;6.70;99.90
10702;DHT22;5402;50.004;8.246;2023-02-12T08:21:39;6.70;99.90
10702;DHT22;5402;50.004;8.246;2023-02-12T08:24:06;6.80;99.90
10702;DHT22;5402;50.004;8.246;2023-02-12T08:26:34;6.80;99.90
10702;DHT22;5402;50.004;8.246;2023-02-12T08:29:04;6.90;99.90
10702;DHT22;5402;50.004;8.246;2023-02-12T08:31:33;6.90;99.90
10702;DHT22;5402;50.004;8.246;2023-02-12T08:34:01;6.90;99.90
10702;DHT22;5402;50.004;8.246;2023-02-12T08:36:29;7.00;99.90
10702;DHT22;5402;50.004;8.246;2023-02-12T08:38:57;7.10;99.90
10702;DHT22;5402;50.004;8.246;2023-02-12T08:41:26;7.10;99.90
10702;DHT22;5402;50.004;8.246;2023-02-12T08:43:54;7.20;99.90
10702;DHT22;5402;50.004;8.246;2023-02-12T08:46:23;7.20;99.90
10702;DHT22;5402;50.004;8.246;2023-02-12T08:48:53;7.20;99.90
10702;DHT22;5402;50.004;8.246;2023-02-12T08:51:22;7.30;99.90
10702;DHT22;5402;50.004;8.246;2023-02-12T08:53:52;7.30;99.90
10702;DHT22;5402;50.004;8.246;2023-02-12T08:56:19;7.40;99.90
10702;DHT22;5402;50.004;8.246;2023-02-12T08:58:46;7.40;99.90
10702;DHT22;5402;50.004;8.246;2023-02-12T09:01:15;7.50;99.90
10702;DHT22;5402;50.004;8.246;2023-02-12T09:03:43;7.50;99.90
10702;DHT22;5402;50.004;8.246;2023-02-12T09:06:12;7.60;99.90
10702;DHT22;5402;50.004;8.246;2023-02-12T09:08:38;7.70;99.90
10702;DHT22;5402;50.004;8.246;2023-02-12T09:11:06;7.70;99.90
10702;DHT22;5402;50.004;8.246;2023-02-12T09:13:33;7.70;99.90
10702;DHT22;5402;50.004;8.246;2023-02-12T09:16:01;7.80;99.90
10702;DHT22;5402;50.004;8.246;2023-02-12T09:18:29;7.80;99.90
10702;DHT22;5402;50.004;8.246;2023-02-12T09:20:59;7.90;99.90
10702;DHT22;5402;50.004;8.246;2023-02-12T09:23:28;7.90;99.90
10702;DHT22;5402;50.004;8.246;2023-02-12T09:25:54;8.00;99.90
10702;DHT22;5402;50.004;8.246;2023-02-12T09:28:21;8.10;99.90
10702;DHT22;5402;50.004;8.246;2023-02-12T09:30:48;8.10;99.90
10702;DHT22;5402;50.004;8.246;2023-02-12T09:33:14;8.20;99.90
10702;DHT22;5402;50.004;8.246;2023-02-12T09:35:41;8.20;99.90
10702;DHT22;5402;50.004;8.246;2023-02-12T09:38:08;8.30;99.90
10702;DHT22;5402;50.004;8.246;2023-02-12T09:40:43;8.30;99.90
10702;DHT22;5402;50.004;8.246;2023-02-12T09:43:17;8.30;99.90
10702;DHT22;5402;50.004;8.246;2023-02-12T09:45:50;8.30;99.90
10702;DHT22;5402;50.004;8.246;2023-02-12T09:48:33;8.30;99.90
10702;DHT22;5402;50.004;8.246;2023-02-12T09:51:04;8.30;99.90
10702;DHT22;5402;50.004;8.246;2023-02-12T09:53:35;8.30;99.90
10702;DHT22;5402;50.004;8.246;2023-02-12T09:56:10;8.40;99.90
10702;DHT22;5402;50.004;8.246;2023-02-12T09:58:42;8.40;99.90
10702;DHT22;5402;50.004;8.246;2023-02-12T10:01:12;8.40;99.90
10702;DHT22;5402;50.004;8.246;2023-02-12T10:03:39;8.60;99.90
10702;DHT22;5402;50.004;8.246;2023-02-12T10:06:12;8.60;99.90
10702;DHT22;5402;50.004;8.246;2023-02-12T10:08:57;8.60;99.90
10702;DHT22;5402;50.004;8.246;2023-02-12T10:11:38;8.70;99.90
10702;DHT22;5402;50.004;8.246;2023-02-12T10:14:17;8.80;99.90
10702;DHT22;5402;50.004;8.246;2023-02-12T10:16:55;8.80;99.90
10702;DHT22;5402;50.004;8.246;2023-02-12T10:19:35;8.80;99.90
10702;DHT22;5402;50.004;8.246;2023-02-12T10:22:13;8.80;99.90
10702;DHT22;5402;50.004;8.246;2023-02-12T10:24:56;8.80;99.90
10702;DHT22;5402;50.004;8.246;2023-02-12T10:27:37;8.80;99.90
10702;DHT22;5402;50.004;8.246;2023-02-12T10:30:15;8.80;99.90
10702;DHT22;5402;50.004;8.246;2023-02-12T10:32:42;8.70;99.90
10702;DHT22;5402;50.004;8.246;2023-02-12T10:35:13;8.80;99.90
10702;DHT22;5402;50.004;8.246;2023-02-12T10:37:45;8.70;99.90
10702;DHT22;5402;50.004;8.246;2023-02-12T10:40:18;8.80;99.90
10702;DHT22;5402;50.004;8.246;2023-02-12T10:42:49;8.80;99.90
10702;DHT22;5402;50.004;8.246;2023-02-12T10:45:18;8.80;99.90
10702;DHT22;5402;50.004;8.246;2023-02-12T10:47:48;8.80;99.90
10702;DHT22;5402;50.004;8.246;2023-02-12T10:50:21;8.80;99.90
10702;DHT22;5402;50.004;8.246;2023-02-12T10:52:54;8.90;99.90
10702;DHT22;5402;50.004;8.246;2023-02-12T10:55:26;8.80;99.90
10702;DHT22;5402;50.004;8.246;2023-02-12T10:57:56;8.80;99.90
10702;DHT22;5402;50.004;8.246;2023-02-12T11:00:25;8.80;99.90
10702;DHT22;5402;50.004;8.246;2023-02-12T11:03:02;8.80;99.90
10702;DHT22;5402;50.004;8.246;2023-02-12T11:05:31;8.70;99.90
10702;DHT22;5402;50.004;8.246;2023-02-12T11:07:58;8.80;99.90
10702;DHT22;5402;50.004;8.246;2023-02-12T11:10:27;8.80;99.90
10702;DHT22;5402;50.004;8.246;2023-02-12T11:12:57;8.80;99.90
10702;DHT22;5402;50.004;8.246;2023-02-12T11:15:26;8.90;99.90
10702;DHT22;5402;50.004;8.246;2023-02-12T11:17:58;8.90;99.90
10702;DHT22;5402;50.004;8.246;2023-02-12T11:20:27;9.00;99.90
10702;DHT22;5402;50.004;8.246;2023-02-12T11:22:58;9.00;99.90
10702;DHT22;5402;50.004;8.246;2023-02-12T11:25:27;9.10;99.90
10702;DHT22;5402;50.004;8.246;2023-02-12T11:28:05;9.10;99.90
10702;DHT22;5402;50.004;8.246;2023-02-12T11:30:32;9.10;99.90
10702;DHT22;5402;50.004;8.246;2023-02-12T11:33:15;9.10;99.90
10702;DHT22;5402;50.004;8.246;2023-02-12T11:35:53;9.20;99.90
10702;DHT22;5402;50.004;8.246;2023-02-12T11:38:24;9.10;99.90
10702;DHT22;5402;50.004;8.246;2023-02-12T11:40:55;9.10;99.90
10702;DHT22;5402;50.004;8.246;2023-02-12T11:43:25;9.20;99.90
10702;DHT22;5402;50.004;8.246;2023-02-12T11:45:54;9.20;99.90
10702;DHT22;5402;50.004;8.246;2023-02-12T11:48:25;9.30;99.90
10702;DHT22;5402;50.004;8.246;2023-02-12T11:50:55;9.30;99.90
10702;DHT22;5402;50.004;8.246;2023-02-12T11:53:24;9.40;99.90
10702;DHT22;5402;50.004;8.246;2023-02-12T11:55:55;9.40;99.90
10702;DHT22;5402;50.004;8.246;2023-02-12T11:58:25;9.40;99.90
10702;DHT22;5402;50.004;8.246;2023-02-12T12:00:58;9.30;99.90
10702;DHT22;5402;50.004;8.246;2023-02-12T12:03:28;9.40;99.90
10702;DHT22;5402;50.004;8.246;2023-02-12T12:06:00;9.40;99.90
10702;DHT22;5402;50.004;8.246;2023-02-12T12:08:32;9.40;99.90
10702;DHT22;5402;50.004;8.246;2023-02-12T12:11:04;9.50;99.90
10702;DHT22;5402;50.004;8.246;2023-02-12T12:13:42;9.40;99.90
10702;DHT22;5402;50.004;8.246;2023-02-12T12:16:15;9.50;99.90
10702;DHT22;5402;50.004;8.246;2023-02-12T12:19:04;9.50;99.90
10702;DHT22;5402;50.004;8.246;2023-02-12T12:21:56;9.60;99.90
10702;DHT22;5402;50.004;8.246;2023-02-12T12:24:28;9.60;99.90
10702;DHT22;5402;50.004;8.246;2023-02-12T12:26:59;9.70;99.90
10702;DHT22;5402;50.004;8.246;2023-02-12T12:29:41;9.70;99.90
10702;DHT22;5402;50.004;8.246;2023-02-12T12:32:11;9.70;99.90
10702;DHT22;5402;50.004;8.246;2023-02-12T12:34:41;9.80;99.90
10702;DHT22;5402;50.004;8.246;2023-02-12T12:37:39;9.80;99.90
10702;DHT22;5402;50.004;8.246;2023-02-12T12:40:25;9.80;99.90
10702;DHT22;5402;50.004;8.246;2023-02-12T12:43:02;9.80;99.90
10702;DHT22;5402;50.004;8.246;2023-02-12T12:45:52;9.90;99.90
10702;DHT22;5402;50.004;8.246;2023-02-12T12:48:33;9.90;99.90
10702;DHT22;5402;50.004;8.246;2023-02-12T12:51:15;9.90;99.90
10702;DHT22;5402;50.004;8.246;2023-02-12T12:53:55;10.00;99.90
10702;DHT22;5402;50.004;8.246;2023-02-12T12:56:37;10.00;99.90
10702;DHT22;5402;50.004;8.246;2023-02-12T12:59:42;9.90;99.90
10702;DHT22;5402;50.004;8.246;2023-02-12T13:08:32;10.00;99.90
10702;DHT22;5402;50.004;8.246;2023-02-12T13:11:11;10.00;99.90
10702;DHT22;5402;50.004;8.246;2023-02-12T13:13:44;10.00;99.90
10702;DHT22;5402;50.004;8.246;2023-02-12T13:16:15;10.00;99.90
10702;DHT22;5402;50.004;8.246;2023-02-12T13:18:54;10.00;99.90
10702;DHT22;5402;50.004;8.246;2023-02-12T13:21:32;10.00;99.90
10702;DHT22;5402;50.004;8.246;2023-02-12T13:24:04;10.00;99.90
10702;DHT22;5402;50.004;8.246;2023-02-12T13:26:41;10.00;99.90
10702;DHT22;5402;50.004;8.246;2023-02-12T13:29:14;10.00;99.90
10702;DHT22;5402;50.004;8.246;2023-02-12T13:31:45;10.10;99.90
10702;DHT22;5402;50.004;8.246;2023-02-12T13:34:16;10.10;99.90
10702;DHT22;5402;50.004;8.246;2023-02-12T13:36:44;10.10;99.90
10702;DHT22;5402;50.004;8.246;2023-02-12T13:39:17;10.10;99.90
10702;DHT22;5402;50.004;8.246;2023-02-12T13:41:58;10.10;99.90
10702;DHT22;5402;50.004;8.246;2023-02-12T13:44:31;10.10;99.90
10702;DHT22;5402;50.004;8.246;2023-02-12T13:47:07;10.20;99.90
10702;DHT22;5402;50.004;8.246;2023-02-12T13:49:46;10.20;99.90
10702;DHT22;5402;50.004;8.246;2023-02-12T13:52:25;10.20;99.90
10702;DHT22;5402;50.004;8.246;2023-02-12T13:55:08;10.20;99.90
10702;DHT22;5402;50.004;8.246;2023-02-12T13:57:36;10.20;99.90
10702;DHT22;5402;50.004;8.246;2023-02-12T14:00:04;10.20;99.90
10702;DHT22;5402;50.004;8.246;2023-02-12T14:02:43;10.20;99.90
10702;DHT22;5402;50.004;8.246;2023-02-12T14:08:05;10.20;99.90
10702;DHT22;5402;50.004;8.246;2023-02-12T14:10:35;10.20;99.90
10702;DHT22;5402;50.004;8.246;2023-02-12T14:13:15;10.30;99.90
10702;DHT22;5402;50.004;8.246;2023-02-12T14:15:45;10.30;99.90
10702;DHT22;5402;50.004;8.246;2023-02-12T14:18:29;10.20;99.90
10702;DHT22;5402;50.004;8.246;2023-02-12T14:27:24;10.20;99.90
10702;DHT22;5402;50.004;8.246;2023-02-12T14:30:28;10.30;99.90
10702;DHT22;5402;50.004;8.246;2023-02-12T14:33:23;10.20;99.90
10702;DHT22;5402;50.004;8.246;2023-02-12T14:36:12;10.30;99.90
10702;DHT22;5402;50.004;8.246;2023-02-12T14:39:01;10.30;99.90
10702;DHT22;5402;50.004;8.246;2023-02-12T14:41:31;10.20;99.90
10702;DHT22;5402;50.004;8.246;2023-02-12T14:50:14;10.10;99.90
10702;DHT22;5402;50.004;8.246;2023-02-12T14:52:47;10.10;99.90
10702;DHT22;5402;50.004;8.246;2023-02-12T14:55:21;10.10;99.90
10702;DHT22;5402;50.004;8.246;2023-02-12T14:57:49;10.10;99.90
10702;DHT22;5402;50.004;8.246;2023-02-12T15:00:23;10.10;99.90
10702;DHT22;5402;50.004;8.246;2023-02-12T15:02:56;10.10;99.90
10702;DHT22;5402;50.004;8.246;2023-02-12T15:05:27;10.10;99.90
10702;DHT22;5402;50.004;8.246;2023-02-12T15:07:57;10.00;99.90
10702;DHT22;5402;50.004;8.246;2023-02-12T15:10:29;10.00;99.90
10702;DHT22;5402;50.004;8.246;2023-02-12T15:13:07;10.00;99.90
10702;DHT22;5402;50.004;8.246;2023-02-12T15:15:43;10.00;99.90
10702;DHT22;5402;50.004;8.246;2023-02-12T15:18:18;10.00;99.90
10702;DHT22;5402;50.004;8.246;2023-02-12T15:20:50;9.90;99.90
10702;DHT22;5402;50.004;8.246;2023-02-12T15:23:32;10.00;99.90
10702;DHT22;5402;50.004;8.246;2023-02-12T15:25:59;9.90;99.90
10702;DHT22;5402;50.004;8.246;2023-02-12T15:28:29;9.90;99.90
10702;DHT22;5402;50.004;8.246;2023-02-12T15:30:59;9.90;99.90
10702;DHT22;5402;50.004;8.246;2023-02-12T15:33:30;9.80;99.90
10702;DHT22;5402;50.004;8.246;2023-02-12T15:35:58;9.90;99.90
10702;DHT22;5402;50.004;8.246;2023-02-12T15:38:30;9.90;99.90
10702;DHT22;5402;50.004;8.246;2023-02-12T15:40:59;9.90;99.90
10702;DHT22;5402;50.004;8.246;2023-02-12T15:43:28;9.80;99.90
10702;DHT22;5402;50.004;8.246;2023-02-12T15:46:00;9.70;99.90
10702;DHT22;5402;50.004;8.246;2023-02-12T15:48:33;9.70;99.90
10702;DHT22;5402;50.004;8.246;2023-02-12T15:51:06;9.70;99.90
10702;DHT22;5402;50.004;8.246;2023-02-12T15:53:35;9.60;99.90
10702;DHT22;5402;50.004;8.246;2023-02-12T15:56:04;9.60;99.90
10702;DHT22;5402;50.004;8.246;2023-02-12T15:58:42;9.60;99.90
10702;DHT22;5402;50.004;8.246;2023-02-12T16:01:14;9.60;99.90
10702;DHT22;5402;50.004;8.246;2023-02-12T16:03:43;9.80;99.90
10702;DHT22;5402;50.004;8.246;2023-02-12T16:06:14;9.70;99.90
10702;DHT22;5402;50.004;8.246;2023-02-12T16:08:43;9.60;99.90
10702;DHT22;5402;50.004;8.246;2023-02-12T16:11:11;9.50;99.90
10702;DHT22;5402;50.004;8.246;2023-02-12T16:13:42;9.50;99.90
10702;DHT22;5402;50.004;8.246;2023-02-12T16:16:19;9.40;99.90
10702;DHT22;5402;50.004;8.246;2023-02-12T16:19:03;9.40;99.90
10702;DHT22;5402;50.004;8.246;2023-02-12T16:21:33;9.40;99.90
10702;DHT22;5402;50.004;8.246;2023-02-12T16:24:01;9.30;99.90
10702;DHT22;5402;50.004;8.246;2023-02-12T16:26:28;9.20;99.90
10702;DHT22;5402;50.004;8.246;2023-02-12T16:28:56;9.10;99.90
10702;DHT22;5402;50.004;8.246;2023-02-12T16:31:25;9.00;99.90
10702;DHT22;5402;50.004;8.246;2023-02-12T16:33:54;8.90;99.90
10702;DHT22;5402;50.004;8.246;2023-02-12T16:36:29;8.90;99.90
10702;DHT22;5402;50.004;8.246;2023-02-12T16:39:01;8.80;99.90
10702;DHT22;5402;50.004;8.246;2023-02-12T16:41:29;8.70;99.90
10702;DHT22;5402;50.004;8.246;2023-02-12T16:44:26;8.70;99.90
10702;DHT22;5402;50.004;8.246;2023-02-12T16:46:58;8.60;99.90
10702;DHT22;5402;50.004;8.246;2023-02-12T16:49:27;8.50;99.90